Sturgeon Falls, Canada
Current Conditions -  °F | °C
As of 7:00 PM on Monday 24 Nov 2014 (Local Time) from CYYB Reporting Station
Rain Showers Rain Showers  
Wind Chill:   Ceiling: 200
Heat Index:   Visibility: 0.5mi
Dew Point:   Wind: 13mph
Humidity: 100%   Direction: 240°WSW
Pressure: 29.09"   Gusts: 24mph
Location:  46.37°N, 79.93°W
Report Text: CYYB 250000Z 24011G21KT 1/2SM R08/2600V4500FT/D -SHRA FG VV002 07/07 A2909 RMK FG8 PRESRR SLP857 DENSITY ALT 1500FT
Loading
Personal Weather Stations






























Interactive Weather Map New forecast layout! Learn more

10-Day Weather Forecast

Advertisements
Track Severe Weather on mobile